sensor_id;sensor_type;location;lat;lon;timestamp;P1;durP1;ratioP1;P2;durP2;ratioP2
71513;SDS011;59335;46.652;21.272;2022-09-24T00:02:38;7.63;;;3.95;;
71513;SDS011;59335;46.652;21.272;2022-09-24T00:05:40;8.48;;;3.95;;
71513;SDS011;59335;46.652;21.272;2022-09-24T00:08:44;7.63;;;4.10;;
71513;SDS011;59335;46.652;21.272;2022-09-24T00:11:48;8.60;;;3.83;;
71513;SDS011;59335;46.652;21.272;2022-09-24T00:14:51;8.13;;;3.92;;
71513;SDS011;59335;46.652;21.272;2022-09-24T00:17:54;7.88;;;4.05;;
71513;SDS011;59335;46.652;21.272;2022-09-24T00:20:56;8.40;;;4.25;;
71513;SDS011;59335;46.652;21.272;2022-09-24T00:24:00;7.03;;;3.83;;
71513;SDS011;59335;46.652;21.272;2022-09-24T00:27:05;7.70;;;3.63;;
71513;SDS011;59335;46.652;21.272;2022-09-24T00:30:08;7.65;;;3.65;;
71513;SDS011;59335;46.652;21.272;2022-09-24T00:33:11;8.00;;;4.18;;
71513;SDS011;59335;46.652;21.272;2022-09-24T00:36:13;7.63;;;3.75;;
71513;SDS011;59335;46.652;21.272;2022-09-24T00:39:16;7.07;;;3.83;;
71513;SDS011;59335;46.652;21.272;2022-09-24T00:42:21;7.82;;;4.00;;
71513;SDS011;59335;46.652;21.272;2022-09-24T00:45:24;7.00;;;3.97;;
71513;SDS011;59335;46.652;21.272;2022-09-24T00:48:29;8.50;;;4.10;;
71513;SDS011;59335;46.652;21.272;2022-09-24T00:51:35;7.72;;;3.90;;
71513;SDS011;59335;46.652;21.272;2022-09-24T00:54:39;7.77;;;3.93;;
71513;SDS011;59335;46.652;21.272;2022-09-24T00:57:44;7.25;;;3.70;;
71513;SDS011;59335;46.652;21.272;2022-09-24T01:00:53;7.82;;;3.65;;
71513;SDS011;59335;46.652;21.272;2022-09-24T01:04:00;7.30;;;3.72;;
71513;SDS011;59335;46.652;21.272;2022-09-24T01:07:05;7.60;;;4.10;;
71513;SDS011;59335;46.652;21.272;2022-09-24T01:10:09;10.00;;;3.93;;
71513;SDS011;59335;46.652;21.272;2022-09-24T01:26:24;8.43;;;3.47;;
71513;SDS011;59335;46.652;21.272;2022-09-24T01:33:03;7.85;;;3.72;;
71513;SDS011;59335;46.652;21.272;2022-09-24T01:36:09;7.15;;;3.85;;
71513;SDS011;59335;46.652;21.272;2022-09-24T01:39:15;7.38;;;3.60;;
71513;SDS011;59335;46.652;21.272;2022-09-24T01:42:18;7.27;;;3.90;;
71513;SDS011;59335;46.652;21.272;2022-09-24T01:45:23;8.10;;;3.63;;
71513;SDS011;59335;46.652;21.272;2022-09-24T01:48:34;6.07;;;3.63;;
71513;SDS011;59335;46.652;21.272;2022-09-24T01:51:46;7.05;;;3.80;;
71513;SDS011;59335;46.652;21.272;2022-09-24T01:54:51;6.93;;;3.78;;
71513;SDS011;59335;46.652;21.272;2022-09-24T01:57:58;9.30;;;3.73;;
71513;SDS011;59335;46.652;21.272;2022-09-24T02:01:08;6.80;;;3.70;;
71513;SDS011;59335;46.652;21.272;2022-09-24T02:04:15;7.65;;;3.75;;
71513;SDS011;59335;46.652;21.272;2022-09-24T02:07:21;8.40;;;4.45;;
71513;SDS011;59335;46.652;21.272;2022-09-24T02:10:27;7.22;;;4.20;;
71513;SDS011;59335;46.652;21.272;2022-09-24T02:17:09;6.70;;;3.50;;
71513;SDS011;59335;46.652;21.272;2022-09-24T02:20:15;6.82;;;3.40;;
71513;SDS011;59335;46.652;21.272;2022-09-24T02:23:21;7.68;;;3.40;;
71513;SDS011;59335;46.652;21.272;2022-09-24T02:26:27;6.60;;;3.58;;
71513;SDS011;59335;46.652;21.272;2022-09-24T02:29:30;7.60;;;4.17;;
71513;SDS011;59335;46.652;21.272;2022-09-24T02:32:33;6.65;;;3.45;;
71513;SDS011;59335;46.652;21.272;2022-09-24T02:35:38;7.70;;;3.85;;
71513;SDS011;59335;46.652;21.272;2022-09-24T02:38:41;7.05;;;3.63;;
71513;SDS011;59335;46.652;21.272;2022-09-24T02:41:44;7.75;;;3.88;;
71513;SDS011;59335;46.652;21.272;2022-09-24T02:44:52;7.73;;;3.67;;
71513;SDS011;59335;46.652;21.272;2022-09-24T02:47:58;6.95;;;3.67;;
71513;SDS011;59335;46.652;21.272;2022-09-24T02:51:01;6.65;;;3.60;;
71513;SDS011;59335;46.652;21.272;2022-09-24T02:54:05;7.85;;;3.60;;
71513;SDS011;59335;46.652;21.272;2022-09-24T02:57:08;6.75;;;3.50;;
71513;SDS011;59335;46.652;21.272;2022-09-24T03:00:11;7.33;;;3.90;;
71513;SDS011;59335;46.652;21.272;2022-09-24T03:03:14;6.93;;;3.60;;
71513;SDS011;59335;46.652;21.272;2022-09-24T03:06:16;6.82;;;3.58;;
71513;SDS011;59335;46.652;21.272;2022-09-24T03:09:19;6.18;;;3.72;;
71513;SDS011;59335;46.652;21.272;2022-09-24T03:12:21;7.57;;;4.07;;
71513;SDS011;59335;46.652;21.272;2022-09-24T03:15:24;9.17;;;3.70;;
71513;SDS011;59335;46.652;21.272;2022-09-24T03:18:27;6.95;;;3.90;;
71513;SDS011;59335;46.652;21.272;2022-09-24T03:21:29;6.35;;;3.55;;
71513;SDS011;59335;46.652;21.272;2022-09-24T03:24:32;6.80;;;3.70;;
71513;SDS011;59335;46.652;21.272;2022-09-24T03:27:34;6.22;;;3.45;;
71513;SDS011;59335;46.652;21.272;2022-09-24T03:30:37;8.13;;;3.60;;
71513;SDS011;59335;46.652;21.272;2022-09-24T03:33:58;5.90;;;3.40;;
71513;SDS011;59335;46.652;21.272;2022-09-24T03:37:00;6.30;;;3.45;;
71513;SDS011;59335;46.652;21.272;2022-09-24T03:40:03;7.63;;;3.97;;
71513;SDS011;59335;46.652;21.272;2022-09-24T03:43:09;6.75;;;3.60;;
71513;SDS011;59335;46.652;21.272;2022-09-24T03:46:11;6.37;;;3.23;;
71513;SDS011;59335;46.652;21.272;2022-09-24T03:49:15;6.18;;;3.55;;
71513;SDS011;59335;46.652;21.272;2022-09-24T03:52:18;7.40;;;4.10;;
71513;SDS011;59335;46.652;21.272;2022-09-24T03:55:21;8.13;;;3.30;;
71513;SDS011;59335;46.652;21.272;2022-09-24T03:58:23;6.88;;;3.55;;
71513;SDS011;59335;46.652;21.272;2022-09-24T04:01:26;6.53;;;3.50;;
71513;SDS011;59335;46.652;21.272;2022-09-24T04:04:30;6.68;;;3.28;;
71513;SDS011;59335;46.652;21.272;2022-09-24T04:07:32;6.13;;;3.20;;
71513;SDS011;59335;46.652;21.272;2022-09-24T04:10:35;7.78;;;3.42;;
71513;SDS011;59335;46.652;21.272;2022-09-24T04:13:38;6.85;;;3.20;;
71513;SDS011;59335;46.652;21.272;2022-09-24T04:16:40;6.20;;;3.20;;
71513;SDS011;59335;46.652;21.272;2022-09-24T04:19:43;6.13;;;3.47;;
71513;SDS011;59335;46.652;21.272;2022-09-24T04:22:46;6.55;;;3.10;;
71513;SDS011;59335;46.652;21.272;2022-09-24T04:25:52;6.57;;;3.38;;
71513;SDS011;59335;46.652;21.272;2022-09-24T04:28:55;6.07;;;3.20;;
71513;SDS011;59335;46.652;21.272;2022-09-24T04:32:00;6.80;;;3.10;;
71513;SDS011;59335;46.652;21.272;2022-09-24T04:35:04;6.93;;;3.08;;
71513;SDS011;59335;46.652;21.272;2022-09-24T04:38:08;6.38;;;3.45;;
71513;SDS011;59335;46.652;21.272;2022-09-24T04:41:12;7.10;;;3.30;;
71513;SDS011;59335;46.652;21.272;2022-09-24T04:44:17;6.20;;;3.53;;
71513;SDS011;59335;46.652;21.272;2022-09-24T04:47:20;6.03;;;3.17;;
71513;SDS011;59335;46.652;21.272;2022-09-24T04:50:26;6.70;;;3.25;;
71513;SDS011;59335;46.652;21.272;2022-09-24T04:53:35;5.95;;;2.90;;
71513;SDS011;59335;46.652;21.272;2022-09-24T04:56:38;6.47;;;3.40;;
71513;SDS011;59335;46.652;21.272;2022-09-24T04:59:41;5.18;;;2.75;;
71513;SDS011;59335;46.652;21.272;2022-09-24T05:02:45;6.17;;;3.23;;
71513;SDS011;59335;46.652;21.272;2022-09-24T05:05:48;5.55;;;3.13;;
71513;SDS011;59335;46.652;21.272;2022-09-24T05:08:53;6.35;;;3.08;;
71513;SDS011;59335;46.652;21.272;2022-09-24T05:11:57;6.93;;;3.38;;
71513;SDS011;59335;46.652;21.272;2022-09-24T05:15:00;5.72;;;3.00;;
71513;SDS011;59335;46.652;21.272;2022-09-24T05:18:02;6.47;;;3.20;;
71513;SDS011;59335;46.652;21.272;2022-09-24T05:21:05;6.88;;;3.28;;
71513;SDS011;59335;46.652;21.272;2022-09-24T05:24:07;6.22;;;3.30;;
71513;SDS011;59335;46.652;21.272;2022-09-24T05:27:10;7.22;;;3.30;;
71513;SDS011;59335;46.652;21.272;2022-09-24T05:30:13;7.38;;;3.10;;
71513;SDS011;59335;46.652;21.272;2022-09-24T05:33:16;6.23;;;3.40;;
71513;SDS011;59335;46.652;21.272;2022-09-24T05:36:19;6.15;;;3.50;;
71513;SDS011;59335;46.652;21.272;2022-09-24T05:39:21;6.65;;;3.33;;
71513;SDS011;59335;46.652;21.272;2022-09-24T05:42:24;6.88;;;4.15;;
71513;SDS011;59335;46.652;21.272;2022-09-24T05:45:30;5.93;;;3.05;;
71513;SDS011;59335;46.652;21.272;2022-09-24T05:48:33;7.10;;;3.10;;
71513;SDS011;59335;46.652;21.272;2022-09-24T05:51:38;5.75;;;3.33;;
71513;SDS011;59335;46.652;21.272;2022-09-24T05:54:41;6.32;;;3.55;;
71513;SDS011;59335;46.652;21.272;2022-09-24T05:57:43;6.30;;;3.30;;
71513;SDS011;59335;46.652;21.272;2022-09-24T06:00:46;5.60;;;3.00;;
71513;SDS011;59335;46.652;21.272;2022-09-24T06:03:49;5.90;;;2.80;;
71513;SDS011;59335;46.652;21.272;2022-09-24T06:06:51;5.57;;;3.05;;
71513;SDS011;59335;46.652;21.272;2022-09-24T06:09:54;5.88;;;2.83;;
71513;SDS011;59335;46.652;21.272;2022-09-24T06:13:00;5.25;;;3.05;;
71513;SDS011;59335;46.652;21.272;2022-09-24T06:16:03;5.95;;;3.05;;
71513;SDS011;59335;46.652;21.272;2022-09-24T06:19:08;6.20;;;3.00;;
71513;SDS011;59335;46.652;21.272;2022-09-24T06:22:11;5.20;;;2.70;;
71513;SDS011;59335;46.652;21.272;2022-09-24T06:25:13;5.25;;;2.70;;
71513;SDS011;59335;46.652;21.272;2022-09-24T06:28:16;6.93;;;3.08;;
71513;SDS011;59335;46.652;21.272;2022-09-24T06:31:18;4.85;;;2.55;;
71513;SDS011;59335;46.652;21.272;2022-09-24T06:34:21;6.20;;;2.77;;
71513;SDS011;59335;46.652;21.272;2022-09-24T06:37:24;5.82;;;3.03;;
71513;SDS011;59335;46.652;21.272;2022-09-24T06:40:27;5.45;;;2.72;;
71513;SDS011;59335;46.652;21.272;2022-09-24T06:43:36;5.20;;;3.00;;
71513;SDS011;59335;46.652;21.272;2022-09-24T06:46:39;6.07;;;2.90;;
71513;SDS011;59335;46.652;21.272;2022-09-24T06:49:41;5.87;;;2.93;;
71513;SDS011;59335;46.652;21.272;2022-09-24T06:52:44;6.45;;;2.90;;
71513;SDS011;59335;46.652;21.272;2022-09-24T06:55:47;5.50;;;2.70;;
71513;SDS011;59335;46.652;21.272;2022-09-24T06:58:50;5.47;;;2.95;;
71513;SDS011;59335;46.652;21.272;2022-09-24T07:01:53;5.15;;;2.90;;
71513;SDS011;59335;46.652;21.272;2022-09-24T07:04:56;5.73;;;2.70;;
71513;SDS011;59335;46.652;21.272;2022-09-24T07:07:58;5.10;;;3.00;;
71513;SDS011;59335;46.652;21.272;2022-09-24T07:11:01;5.20;;;2.83;;
71513;SDS011;59335;46.652;21.272;2022-09-24T07:14:03;5.85;;;2.88;;
71513;SDS011;59335;46.652;21.272;2022-09-24T07:17:06;4.85;;;2.78;;
71513;SDS011;59335;46.652;21.272;2022-09-24T07:20:08;6.00;;;2.83;;
71513;SDS011;59335;46.652;21.272;2022-09-24T07:23:11;5.80;;;2.83;;
71513;SDS011;59335;46.652;21.272;2022-09-24T07:26:14;6.22;;;2.60;;
71513;SDS011;59335;46.652;21.272;2022-09-24T07:29:16;5.68;;;2.97;;
71513;SDS011;59335;46.652;21.272;2022-09-24T07:32:20;4.40;;;2.63;;
71513;SDS011;59335;46.652;21.272;2022-09-24T07:35:30;5.07;;;2.83;;
71513;SDS011;59335;46.652;21.272;2022-09-24T07:38:33;5.40;;;2.55;;
71513;SDS011;59335;46.652;21.272;2022-09-24T07:41:37;5.90;;;2.80;;
71513;SDS011;59335;46.652;21.272;2022-09-24T07:44:43;4.97;;;2.60;;
71513;SDS011;59335;46.652;21.272;2022-09-24T07:47:46;5.68;;;2.55;;
71513;SDS011;59335;46.652;21.272;2022-09-24T07:50:49;5.07;;;2.90;;
71513;SDS011;59335;46.652;21.272;2022-09-24T07:53:52;4.80;;;2.90;;
71513;SDS011;59335;46.652;21.272;2022-09-24T07:56:58;5.05;;;2.67;;
71513;SDS011;59335;46.652;21.272;2022-09-24T08:00:02;4.75;;;2.42;;
71513;SDS011;59335;46.652;21.272;2022-09-24T08:03:12;4.70;;;2.30;;
71513;SDS011;59335;46.652;21.272;2022-09-24T08:06:15;4.87;;;2.27;;
71513;SDS011;59335;46.652;21.272;2022-09-24T08:09:17;4.78;;;2.50;;
71513;SDS011;59335;46.652;21.272;2022-09-24T08:12:20;5.32;;;2.40;;
71513;SDS011;59335;46.652;21.272;2022-09-24T08:15:26;5.13;;;2.60;;
71513;SDS011;59335;46.652;21.272;2022-09-24T08:18:30;4.68;;;2.30;;
71513;SDS011;59335;46.652;21.272;2022-09-24T08:21:33;4.73;;;2.60;;
71513;SDS011;59335;46.652;21.272;2022-09-24T08:24:40;5.20;;;2.70;;
71513;SDS011;59335;46.652;21.272;2022-09-24T08:27:43;5.30;;;2.40;;
71513;SDS011;59335;46.652;21.272;2022-09-24T08:30:45;4.40;;;2.53;;
71513;SDS011;59335;46.652;21.272;2022-09-24T08:33:48;4.80;;;2.30;;
71513;SDS011;59335;46.652;21.272;2022-09-24T08:36:52;5.57;;;2.53;;
71513;SDS011;59335;46.652;21.272;2022-09-24T08:39:54;5.13;;;2.67;;
71513;SDS011;59335;46.652;21.272;2022-09-24T08:46:35;4.97;;;2.75;;
71513;SDS011;59335;46.652;21.272;2022-09-24T08:53:23;5.10;;;2.70;;
71513;SDS011;59335;46.652;21.272;2022-09-24T08:56:31;5.55;;;2.78;;
71513;SDS011;59335;46.652;21.272;2022-09-24T08:59:37;5.53;;;2.55;;
71513;SDS011;59335;46.652;21.272;2022-09-24T09:02:51;5.68;;;2.85;;
71513;SDS011;59335;46.652;21.272;2022-09-24T09:06:02;5.80;;;2.45;;
71513;SDS011;59335;46.652;21.272;2022-09-24T09:09:13;4.80;;;2.30;;
71513;SDS011;59335;46.652;21.272;2022-09-24T09:12:26;5.72;;;2.35;;
71513;SDS011;59335;46.652;21.272;2022-09-24T09:15:39;5.25;;;2.58;;
71513;SDS011;59335;46.652;21.272;2022-09-24T09:18:48;4.60;;;2.40;;
71513;SDS011;59335;46.652;21.272;2022-09-24T09:22:28;4.85;;;2.38;;
71513;SDS011;59335;46.652;21.272;2022-09-24T09:25:25;4.57;;;2.37;;
71513;SDS011;59335;46.652;21.272;2022-09-24T09:28:31;4.20;;;2.30;;
71513;SDS011;59335;46.652;21.272;2022-09-24T09:41:43;4.13;;;2.23;;
71513;SDS011;59335;46.652;21.272;2022-09-24T09:44:59;5.35;;;2.40;;
71513;SDS011;59335;46.652;21.272;2022-09-24T09:48:03;4.25;;;2.10;;
71513;SDS011;59335;46.652;21.272;2022-09-24T09:51:08;4.70;;;2.30;;
71513;SDS011;59335;46.652;21.272;2022-09-24T09:54:34;5.18;;;2.38;;
71513;SDS011;59335;46.652;21.272;2022-09-24T09:57:39;4.47;;;2.30;;
71513;SDS011;59335;46.652;21.272;2022-09-24T10:00:42;4.22;;;2.35;;
71513;SDS011;59335;46.652;21.272;2022-09-24T10:03:49;4.50;;;2.00;;
71513;SDS011;59335;46.652;21.272;2022-09-24T10:07:01;5.15;;;2.60;;
71513;SDS011;59335;46.652;21.272;2022-09-24T10:13:21;5.07;;;2.53;;
71513;SDS011;59335;46.652;21.272;2022-09-24T10:16:24;5.80;;;3.00;;
71513;SDS011;59335;46.652;21.272;2022-09-24T10:19:27;4.22;;;2.30;;
71513;SDS011;59335;46.652;21.272;2022-09-24T10:22:30;6.20;;;2.80;;
71513;SDS011;59335;46.652;21.272;2022-09-24T10:25:33;4.50;;;2.28;;
71513;SDS011;59335;46.652;21.272;2022-09-24T10:28:39;4.33;;;2.20;;
71513;SDS011;59335;46.652;21.272;2022-09-24T10:32:06;4.30;;;2.30;;
71513;SDS011;59335;46.652;21.272;2022-09-24T10:35:20;4.45;;;2.25;;
71513;SDS011;59335;46.652;21.272;2022-09-24T10:38:36;4.47;;;2.40;;
71513;SDS011;59335;46.652;21.272;2022-09-24T10:41:45;4.47;;;2.30;;
71513;SDS011;59335;46.652;21.272;2022-09-24T10:44:49;5.20;;;2.40;;
71513;SDS011;59335;46.652;21.272;2022-09-24T10:48:14;4.18;;;2.35;;
71513;SDS011;59335;46.652;21.272;2022-09-24T10:51:28;4.90;;;2.25;;
71513;SDS011;59335;46.652;21.272;2022-09-24T11:01:29;4.30;;;2.27;;
71513;SDS011;59335;46.652;21.272;2022-09-24T11:07:57;4.47;;;2.35;;
71513;SDS011;59335;46.652;21.272;2022-09-24T11:11:16;4.90;;;2.25;;
71513;SDS011;59335;46.652;21.272;2022-09-24T11:21:16;4.82;;;2.30;;
71513;SDS011;59335;46.652;21.272;2022-09-24T11:38:04;5.43;;;2.72;;
71513;SDS011;59335;46.652;21.272;2022-09-24T11:44:48;4.55;;;2.35;;
71513;SDS011;59335;46.652;21.272;2022-09-24T11:57:39;4.70;;;2.40;;
71513;SDS011;59335;46.652;21.272;2022-09-24T12:01:23;4.30;;;2.38;;
71513;SDS011;59335;46.652;21.272;2022-09-24T12:07:52;4.07;;;2.07;;
71513;SDS011;59335;46.652;21.272;2022-09-24T12:11:03;4.47;;;2.05;;
71513;SDS011;59335;46.652;21.272;2022-09-24T12:14:12;4.15;;;2.35;;
71513;SDS011;59335;46.652;21.272;2022-09-24T12:17:25;4.55;;;2.30;;
71513;SDS011;59335;46.652;21.272;2022-09-24T12:20:43;5.15;;;2.40;;
71513;SDS011;59335;46.652;21.272;2022-09-24T12:24:01;3.97;;;2.20;;
71513;SDS011;59335;46.652;21.272;2022-09-24T12:27:14;5.20;;;2.42;;
71513;SDS011;59335;46.652;21.272;2022-09-24T12:30:44;4.40;;;2.15;;
71513;SDS011;59335;46.652;21.272;2022-09-24T12:34:18;4.97;;;2.20;;
71513;SDS011;59335;46.652;21.272;2022-09-24T12:37:29;4.30;;;2.47;;
71513;SDS011;59335;46.652;21.272;2022-09-24T12:40:55;5.43;;;2.87;;
71513;SDS011;59335;46.652;21.272;2022-09-24T12:44:18;4.40;;;2.30;;
71513;SDS011;59335;46.652;21.272;2022-09-24T12:47:33;4.85;;;2.45;;
71513;SDS011;59335;46.652;21.272;2022-09-24T12:51:05;4.53;;;2.20;;
71513;SDS011;59335;46.652;21.272;2022-09-24T12:57:40;4.40;;;2.40;;
71513;SDS011;59335;46.652;21.272;2022-09-24T13:00:50;5.10;;;2.33;;
71513;SDS011;59335;46.652;21.272;2022-09-24T13:04:01;3.72;;;1.98;;
71513;SDS011;59335;46.652;21.272;2022-09-24T13:07:25;5.57;;;2.53;;
71513;SDS011;59335;46.652;21.272;2022-09-24T13:10:35;4.45;;;2.25;;
71513;SDS011;59335;46.652;21.272;2022-09-24T13:13:38;4.53;;;2.07;;
71513;SDS011;59335;46.652;21.272;2022-09-24T13:16:47;4.28;;;2.10;;
71513;SDS011;59335;46.652;21.272;2022-09-24T13:19:56;3.95;;;2.00;;
71513;SDS011;59335;46.652;21.272;2022-09-24T13:23:11;4.72;;;2.40;;
71513;SDS011;59335;46.652;21.272;2022-09-24T13:29:27;5.83;;;4.53;;
71513;SDS011;59335;46.652;21.272;2022-09-24T13:32:44;4.22;;;2.13;;
71513;SDS011;59335;46.652;21.272;2022-09-24T13:35:58;4.70;;;2.40;;
71513;SDS011;59335;46.652;21.272;2022-09-24T13:42:53;4.18;;;2.13;;
71513;SDS011;59335;46.652;21.272;2022-09-24T13:46:02;4.20;;;2.50;;
71513;SDS011;59335;46.652;21.272;2022-09-24T13:49:10;4.18;;;2.03;;
71513;SDS011;59335;46.652;21.272;2022-09-24T13:52:35;4.20;;;2.20;;
71513;SDS011;59335;46.652;21.272;2022-09-24T13:56:01;4.68;;;2.33;;
71513;SDS011;59335;46.652;21.272;2022-09-24T13:59:10;4.57;;;2.50;;
71513;SDS011;59335;46.652;21.272;2022-09-24T14:02:26;4.07;;;2.07;;
71513;SDS011;59335;46.652;21.272;2022-09-24T14:05:34;4.13;;;2.20;;
71513;SDS011;59335;46.652;21.272;2022-09-24T14:08:41;4.07;;;2.17;;
71513;SDS011;59335;46.652;21.272;2022-09-24T14:15:22;4.25;;;2.17;;
71513;SDS011;59335;46.652;21.272;2022-09-24T14:18:25;4.07;;;2.00;;
71513;SDS011;59335;46.652;21.272;2022-09-24T14:21:39;3.60;;;2.00;;
71513;SDS011;59335;46.652;21.272;2022-09-24T14:25:07;4.43;;;2.30;;
71513;SDS011;59335;46.652;21.272;2022-09-24T14:28:11;4.72;;;2.40;;
71513;SDS011;59335;46.652;21.272;2022-09-24T14:31:14;4.35;;;2.08;;
71513;SDS011;59335;46.652;21.272;2022-09-24T14:34:29;4.27;;;2.00;;
71513;SDS011;59335;46.652;21.272;2022-09-24T14:37:37;4.00;;;2.05;;
71513;SDS011;59335;46.652;21.272;2022-09-24T14:40:53;4.18;;;2.05;;
71513;SDS011;59335;46.652;21.272;2022-09-24T14:44:02;4.43;;;2.28;;
71513;SDS011;59335;46.652;21.272;2022-09-24T14:47:21;4.10;;;2.10;;
71513;SDS011;59335;46.652;21.272;2022-09-24T14:53:39;4.72;;;2.15;;
71513;SDS011;59335;46.652;21.272;2022-09-24T14:56:42;3.72;;;2.10;;
71513;SDS011;59335;46.652;21.272;2022-09-24T14:59:45;4.20;;;2.15;;
71513;SDS011;59335;46.652;21.272;2022-09-24T15:03:00;3.58;;;1.95;;
71513;SDS011;59335;46.652;21.272;2022-09-24T15:06:15;4.93;;;2.00;;
71513;SDS011;59335;46.652;21.272;2022-09-24T15:12:29;4.57;;;2.30;;
71513;SDS011;59335;46.652;21.272;2022-09-24T15:15:33;4.15;;;2.28;;
71513;SDS011;59335;46.652;21.272;2022-09-24T15:18:37;3.78;;;1.85;;
71513;SDS011;59335;46.652;21.272;2022-09-24T15:21:39;3.70;;;2.00;;
71513;SDS011;59335;46.652;21.272;2022-09-24T15:24:42;4.05;;;2.00;;
71513;SDS011;59335;46.652;21.272;2022-09-24T15:27:45;5.05;;;2.20;;
71513;SDS011;59335;46.652;21.272;2022-09-24T15:30:48;4.30;;;2.10;;
71513;SDS011;59335;46.652;21.272;2022-09-24T15:33:51;3.70;;;1.92;;
71513;SDS011;59335;46.652;21.272;2022-09-24T15:36:54;3.90;;;2.10;;
71513;SDS011;59335;46.652;21.272;2022-09-24T15:40:08;4.38;;;2.33;;
71513;SDS011;59335;46.652;21.272;2022-09-24T15:43:23;4.13;;;2.20;;
71513;SDS011;59335;46.652;21.272;2022-09-24T15:46:26;4.30;;;2.45;;
71513;SDS011;59335;46.652;21.272;2022-09-24T15:49:30;3.88;;;2.20;;
71513;SDS011;59335;46.652;21.272;2022-09-24T15:52:33;3.83;;;2.10;;
71513;SDS011;59335;46.652;21.272;2022-09-24T15:55:40;5.13;;;2.30;;
71513;SDS011;59335;46.652;21.272;2022-09-24T15:58:43;3.58;;;1.90;;
71513;SDS011;59335;46.652;21.272;2022-09-24T16:01:47;4.07;;;2.00;;
71513;SDS011;59335;46.652;21.272;2022-09-24T16:04:52;3.85;;;1.90;;
71513;SDS011;59335;46.652;21.272;2022-09-24T16:07:55;4.33;;;2.10;;
71513;SDS011;59335;46.652;21.272;2022-09-24T16:10:58;4.43;;;2.25;;
71513;SDS011;59335;46.652;21.272;2022-09-24T16:14:00;4.35;;;2.20;;
71513;SDS011;59335;46.652;21.272;2022-09-24T16:17:03;3.97;;;2.20;;
71513;SDS011;59335;46.652;21.272;2022-09-24T16:20:06;4.97;;;2.03;;
71513;SDS011;59335;46.652;21.272;2022-09-24T16:23:12;4.17;;;2.17;;
71513;SDS011;59335;46.652;21.272;2022-09-24T16:26:16;3.72;;;2.00;;
71513;SDS011;59335;46.652;21.272;2022-09-24T16:29:19;5.05;;;2.28;;
71513;SDS011;59335;46.652;21.272;2022-09-24T16:32:22;4.80;;;2.13;;
71513;SDS011;59335;46.652;21.272;2022-09-24T16:35:24;4.40;;;2.47;;
71513;SDS011;59335;46.652;21.272;2022-09-24T16:38:27;3.83;;;1.90;;
71513;SDS011;59335;46.652;21.272;2022-09-24T16:41:31;3.90;;;2.20;;
71513;SDS011;59335;46.652;21.272;2022-09-24T16:44:35;3.78;;;2.25;;
71513;SDS011;59335;46.652;21.272;2022-09-24T16:47:38;4.18;;;2.20;;
71513;SDS011;59335;46.652;21.272;2022-09-24T16:50:40;4.60;;;2.30;;
71513;SDS011;59335;46.652;21.272;2022-09-24T16:53:43;3.77;;;2.00;;
71513;SDS011;59335;46.652;21.272;2022-09-24T16:56:50;4.18;;;2.17;;
71513;SDS011;59335;46.652;21.272;2022-09-24T16:59:53;3.92;;;2.03;;
71513;SDS011;59335;46.652;21.272;2022-09-24T17:02:55;4.05;;;2.00;;
71513;SDS011;59335;46.652;21.272;2022-09-24T17:05:59;3.85;;;1.98;;
71513;SDS011;59335;46.652;21.272;2022-09-24T17:09:02;3.93;;;2.00;;
71513;SDS011;59335;46.652;21.272;2022-09-24T17:12:25;4.00;;;2.05;;
71513;SDS011;59335;46.652;21.272;2022-09-24T17:15:30;4.53;;;2.17;;
71513;SDS011;59335;46.652;21.272;2022-09-24T17:18:33;4.72;;;2.42;;
71513;SDS011;59335;46.652;21.272;2022-09-24T17:21:37;3.97;;;2.00;;
71513;SDS011;59335;46.652;21.272;2022-09-24T17:24:41;3.43;;;1.80;;
71513;SDS011;59335;46.652;21.272;2022-09-24T17:27:43;4.45;;;2.20;;
71513;SDS011;59335;46.652;21.272;2022-09-24T17:30:46;4.15;;;2.03;;
71513;SDS011;59335;46.652;21.272;2022-09-24T17:36:59;4.13;;;2.20;;
71513;SDS011;59335;46.652;21.272;2022-09-24T17:40:03;4.03;;;2.27;;
71513;SDS011;59335;46.652;21.272;2022-09-24T17:43:06;4.55;;;2.28;;
71513;SDS011;59335;46.652;21.272;2022-09-24T17:46:09;4.80;;;2.03;;
71513;SDS011;59335;46.652;21.272;2022-09-24T17:49:16;4.07;;;2.00;;
71513;SDS011;59335;46.652;21.272;2022-09-24T17:52:18;3.95;;;2.13;;
71513;SDS011;59335;46.652;21.272;2022-09-24T17:55:21;6.90;;;2.50;;
71513;SDS011;59335;46.652;21.272;2022-09-24T17:58:25;5.45;;;2.42;;
71513;SDS011;59335;46.652;21.272;2022-09-24T18:01:28;5.35;;;2.40;;
71513;SDS011;59335;46.652;21.272;2022-09-24T18:04:37;5.45;;;2.53;;
71513;SDS011;59335;46.652;21.272;2022-09-24T18:07:39;4.95;;;2.30;;
71513;SDS011;59335;46.652;21.272;2022-09-24T18:10:43;5.00;;;2.30;;
71513;SDS011;59335;46.652;21.272;2022-09-24T18:13:52;4.00;;;2.05;;
71513;SDS011;59335;46.652;21.272;2022-09-24T18:16:56;4.78;;;2.38;;
71513;SDS011;59335;46.652;21.272;2022-09-24T18:20:00;4.78;;;2.65;;
71513;SDS011;59335;46.652;21.272;2022-09-24T18:23:03;5.65;;;2.88;;
71513;SDS011;59335;46.652;21.272;2022-09-24T18:26:07;5.10;;;2.40;;
71513;SDS011;59335;46.652;21.272;2022-09-24T18:29:12;5.03;;;2.50;;
71513;SDS011;59335;46.652;21.272;2022-09-24T18:32:18;4.93;;;2.53;;
71513;SDS011;59335;46.652;21.272;2022-09-24T18:35:20;5.05;;;2.50;;
71513;SDS011;59335;46.652;21.272;2022-09-24T18:38:23;5.43;;;2.67;;
71513;SDS011;59335;46.652;21.272;2022-09-24T18:41:27;5.20;;;2.70;;
71513;SDS011;59335;46.652;21.272;2022-09-24T18:44:31;5.43;;;2.63;;
71513;SDS011;59335;46.652;21.272;2022-09-24T18:47:35;4.97;;;2.30;;
71513;SDS011;59335;46.652;21.272;2022-09-24T18:50:44;4.90;;;2.50;;
71513;SDS011;59335;46.652;21.272;2022-09-24T18:53:53;5.40;;;2.63;;
71513;SDS011;59335;46.652;21.272;2022-09-24T18:56:57;5.23;;;2.63;;
71513;SDS011;59335;46.652;21.272;2022-09-24T19:00:00;5.85;;;3.13;;
71513;SDS011;59335;46.652;21.272;2022-09-24T19:03:04;5.07;;;2.72;;
71513;SDS011;59335;46.652;21.272;2022-09-24T19:06:06;5.75;;;2.92;;
71513;SDS011;59335;46.652;21.272;2022-09-24T19:09:10;5.18;;;2.75;;
71513;SDS011;59335;46.652;21.272;2022-09-24T19:12:14;5.60;;;2.63;;
71513;SDS011;59335;46.652;21.272;2022-09-24T19:15:18;4.95;;;2.60;;
71513;SDS011;59335;46.652;21.272;2022-09-24T19:18:20;5.43;;;2.60;;
71513;SDS011;59335;46.652;21.272;2022-09-24T19:21:23;4.85;;;2.40;;
71513;SDS011;59335;46.652;21.272;2022-09-24T19:24:27;5.30;;;2.90;;
71513;SDS011;59335;46.652;21.272;2022-09-24T19:27:29;7.37;;;2.80;;
71513;SDS011;59335;46.652;21.272;2022-09-24T19:30:36;5.85;;;2.80;;
71513;SDS011;59335;46.652;21.272;2022-09-24T19:33:44;5.90;;;2.58;;
71513;SDS011;59335;46.652;21.272;2022-09-24T19:36:47;5.30;;;3.00;;
71513;SDS011;59335;46.652;21.272;2022-09-24T19:39:49;5.75;;;2.80;;
71513;SDS011;59335;46.652;21.272;2022-09-24T19:42:53;5.87;;;2.80;;
71513;SDS011;59335;46.652;21.272;2022-09-24T19:45:56;5.57;;;2.58;;
71513;SDS011;59335;46.652;21.272;2022-09-24T19:49:00;5.10;;;2.50;;
71513;SDS011;59335;46.652;21.272;2022-09-24T19:52:03;5.90;;;3.08;;
71513;SDS011;59335;46.652;21.272;2022-09-24T19:55:05;5.70;;;2.70;;
71513;SDS011;59335;46.652;21.272;2022-09-24T19:58:08;4.77;;;2.50;;
71513;SDS011;59335;46.652;21.272;2022-09-24T20:01:11;5.40;;;2.92;;
71513;SDS011;59335;46.652;21.272;2022-09-24T20:04:18;5.28;;;2.53;;
71513;SDS011;59335;46.652;21.272;2022-09-24T20:07:21;5.93;;;2.95;;
71513;SDS011;59335;46.652;21.272;2022-09-24T20:10:24;5.55;;;3.10;;
71513;SDS011;59335;46.652;21.272;2022-09-24T20:13:26;6.30;;;3.10;;
71513;SDS011;59335;46.652;21.272;2022-09-24T20:16:30;6.85;;;3.00;;